createdAt,value
2018-09-03T00:00:05.982Z,0
2018-09-03T00:01:07.417Z,0
2018-09-03T00:02:08.811Z,0
2018-09-03T00:03:10.237Z,0
2018-09-03T00:04:11.705Z,0
2018-09-03T00:05:13.140Z,0
2018-09-03T00:06:14.600Z,0
2018-09-03T00:07:16.075Z,0
2018-09-03T00:08:17.667Z,0
2018-09-03T00:09:19.284Z,0
2018-09-03T00:10:20.705Z,0
2018-09-03T00:11:22.145Z,0
2018-09-03T00:12:23.557Z,0
2018-09-03T00:13:25.046Z,0
2018-09-03T00:14:26.459Z,0
2018-09-03T00:15:27.953Z,0
2018-09-03T00:16:29.393Z,0
2018-09-03T00:17:30.801Z,0
2018-09-03T00:18:32.246Z,0
2018-09-03T00:19:33.688Z,0
2018-09-03T00:20:35.095Z,0
2018-09-03T00:21:36.491Z,0
2018-09-03T00:22:37.941Z,0
2018-09-03T00:23:39.336Z,0
2018-09-03T00:24:40.801Z,0
2018-09-03T00:25:42.258Z,0
2018-09-03T00:26:43.655Z,0
2018-09-03T00:27:45.049Z,0
2018-09-03T00:28:46.439Z,0
2018-09-03T00:29:47.868Z,0
2018-09-03T00:30:49.301Z,0
2018-09-03T00:31:50.724Z,0
2018-09-03T00:32:52.172Z,0
2018-09-03T00:33:53.595Z,0
2018-09-03T00:34:55.093Z,0
2018-09-03T00:35:56.555Z,0
2018-09-03T00:36:58.017Z,0
2018-09-03T00:37:59.445Z,0
2018-09-03T00:39:00.899Z,0
2018-09-03T00:40:02.372Z,0
2018-09-03T00:41:03.889Z,0
2018-09-03T00:42:05.311Z,0
2018-09-03T00:43:06.791Z,0
2018-09-03T00:44:08.254Z,0
2018-09-03T00:45:09.677Z,0
2018-09-03T00:46:11.115Z,0
2018-09-03T00:47:12.504Z,0
2018-09-03T00:48:13.940Z,0
2018-09-03T00:49:15.425Z,0
2018-09-03T00:50:16.906Z,0
2018-09-03T00:51:18.422Z,0
2018-09-03T00:52:19.836Z,0
2018-09-03T00:53:21.283Z,0
2018-09-03T00:54:22.736Z,0
2018-09-03T00:55:24.205Z,0
2018-09-03T00:56:25.650Z,0
2018-09-03T00:57:27.073Z,0
2018-09-03T00:58:28.463Z,0
2018-09-03T00:59:29.943Z,0
2018-09-03T01:00:31.390Z,0
2018-09-03T01:01:32.790Z,0
2018-09-03T01:02:34.180Z,0
2018-09-03T01:03:35.649Z,0
2018-09-03T01:04:37.075Z,0
2018-09-03T01:05:38.456Z,0
2018-09-03T01:06:39.925Z,0
2018-09-03T01:07:41.351Z,0
2018-09-03T01:08:42.792Z,0
2018-09-03T01:09:44.219Z,0
2018-09-03T01:10:45.613Z,0
2018-09-03T01:11:47.080Z,0
2018-09-03T01:12:48.567Z,0
2018-09-03T01:13:50.050Z,0
2018-09-03T01:14:51.495Z,0
2018-09-03T01:15:52.921Z,0
2018-09-03T01:16:54.374Z,0
2018-09-03T01:17:55.909Z,0
2018-09-03T01:18:57.309Z,0
2018-09-03T01:19:58.793Z,0
2018-09-03T01:21:00.188Z,0
2018-09-03T01:22:01.619Z,0
2018-09-03T01:23:03.097Z,0
2018-09-03T01:24:04.588Z,0
2018-09-03T01:25:05.992Z,0
2018-09-03T01:26:07.446Z,0
2018-09-03T01:27:08.810Z,0
2018-09-03T01:28:10.246Z,0
2018-09-03T01:29:11.662Z,0
2018-09-03T01:30:13.056Z,0
2018-09-03T01:31:14.548Z,0
2018-09-03T01:32:15.950Z,0
2018-09-03T01:33:17.390Z,0
2018-09-03T01:34:18.802Z,0
2018-09-03T01:35:20.427Z,0
2018-09-03T01:36:21.853Z,0
2018-09-03T01:37:23.287Z,0
2018-09-03T01:38:24.691Z,0
2018-09-03T01:39:26.167Z,0
2018-09-03T01:40:27.594Z,0
2018-09-03T01:41:29.026Z,0
2018-09-03T01:42:30.489Z,0
2018-09-03T01:43:31.952Z,0
2018-09-03T01:44:33.350Z,0
2018-09-03T01:45:34.741Z,0
2018-09-03T01:46:36.143Z,0
2018-09-03T01:47:37.537Z,0
2018-09-03T01:48:38.971Z,0
2018-09-03T01:49:40.393Z,0
2018-09-03T01:50:41.781Z,0
2018-09-03T01:51:43.176Z,0
2018-09-03T01:52:44.567Z,0
2018-09-03T01:53:46.013Z,0
2018-09-03T01:54:47.503Z,0
2018-09-03T01:55:48.900Z,0
2018-09-03T01:56:50.308Z,0
2018-09-03T01:57:51.700Z,0
2018-09-03T01:58:53.133Z,0
2018-09-03T01:59:54.580Z,0
2018-09-03T02:00:56.071Z,0
2018-09-03T02:01:57.477Z,0
2018-09-03T02:02:58.928Z,0
2018-09-03T02:04:00.423Z,0
2018-09-03T02:05:01.923Z,0
2018-09-03T02:06:03.428Z,0
2018-09-03T02:07:04.881Z,0
2018-09-03T02:08:06.347Z,0
2018-09-03T02:09:07.779Z,0
2018-09-03T02:10:09.170Z,0
2018-09-03T02:11:10.602Z,0
2018-09-03T02:12:12.090Z,0
2018-09-03T02:13:13.508Z,0
2018-09-03T02:14:14.917Z,0
2018-09-03T02:15:16.316Z,0
2018-09-03T02:16:17.765Z,0
2018-09-03T02:17:19.272Z,0
2018-09-03T02:18:20.688Z,0
2018-09-03T02:19:22.148Z,0
2018-09-03T02:20:24.363Z,0
2018-09-03T02:21:25.806Z,0
2018-09-03T02:22:27.259Z,0
2018-09-03T02:23:28.749Z,0
2018-09-03T02:24:30.141Z,0
2018-09-03T02:25:31.577Z,0
2018-09-03T02:26:33.039Z,0
2018-09-03T02:27:34.506Z,0
2018-09-03T02:28:35.947Z,0
2018-09-03T02:29:37.430Z,0
2018-09-03T02:30:38.878Z,0
2018-09-03T02:31:40.343Z,0
2018-09-03T02:32:41.755Z,0
2018-09-03T02:33:43.220Z,0
2018-09-03T02:34:44.619Z,0
2018-09-03T02:35:46.018Z,0
2018-09-03T02:36:47.424Z,0
2018-09-03T02:37:48.910Z,0
2018-09-03T02:38:50.313Z,0
2018-09-03T02:39:51.776Z,0
2018-09-03T02:40:53.171Z,0
2018-09-03T02:41:54.606Z,0
2018-09-03T02:42:55.986Z,0
2018-09-03T02:43:57.377Z,0
2018-09-03T02:44:58.789Z,0
2018-09-03T02:46:00.224Z,0
2018-09-03T02:47:01.615Z,0
2018-09-03T02:48:03.043Z,0
2018-09-03T02:49:04.533Z,0
2018-09-03T02:50:06.071Z,0
2018-09-03T02:51:07.519Z,0
2018-09-03T02:52:08.960Z,0
2018-09-03T02:53:10.403Z,0
2018-09-03T02:54:11.883Z,0
2018-09-03T02:55:13.290Z,0
2018-09-03T02:56:14.687Z,0
2018-09-03T02:57:16.073Z,0
2018-09-03T02:58:17.509Z,0
2018-09-03T02:59:18.943Z,0
2018-09-03T03:00:20.350Z,0
2018-09-03T03:01:21.816Z,0
2018-09-03T03:02:23.416Z,0
2018-09-03T03:03:25.023Z,0
2018-09-03T03:04:26.433Z,0
2018-09-03T03:05:27.855Z,0
2018-09-03T03:06:29.313Z,0
2018-09-03T03:07:30.786Z,0
2018-09-03T03:08:32.192Z,0
2018-09-03T03:09:33.589Z,0
2018-09-03T03:10:35.049Z,0
2018-09-03T03:11:36.466Z,0
2018-09-03T03:12:37.825Z,0
2018-09-03T03:13:39.298Z,0
2018-09-03T03:14:40.704Z,0
2018-09-03T03:15:42.197Z,0
2018-09-03T03:16:43.540Z,0
2018-09-03T03:17:45.001Z,0
2018-09-03T03:18:46.509Z,0
2018-09-03T03:19:47.897Z,0
2018-09-03T03:20:49.333Z,0
2018-09-03T03:21:50.783Z,0
2018-09-03T03:22:52.235Z,0
2018-09-03T03:23:53.656Z,0
2018-09-03T03:24:55.051Z,0
2018-09-03T03:25:56.489Z,0
2018-09-03T03:26:57.947Z,0
2018-09-03T03:27:59.439Z,0
2018-09-03T03:29:00.903Z,0
2018-09-03T03:30:02.368Z,0
2018-09-03T03:31:03.718Z,0
2018-09-03T03:32:05.105Z,0
2018-09-03T03:33:06.576Z,0
2018-09-03T03:34:08.081Z,0
2018-09-03T03:35:09.475Z,0
2018-09-03T03:36:10.905Z,0
2018-09-03T03:37:12.369Z,0
2018-09-03T03:38:13.799Z,0
2018-09-03T03:39:15.193Z,0
2018-09-03T03:40:16.603Z,0
2018-09-03T03:41:18.034Z,0
2018-09-03T03:42:19.524Z,0
2018-09-03T03:43:20.993Z,0
2018-09-03T03:44:22.413Z,0
2018-09-03T03:45:23.911Z,0
2018-09-03T03:46:25.452Z,0
2018-09-03T03:47:26.905Z,0
2018-09-03T03:48:28.373Z,0
2018-09-03T03:49:29.794Z,0
2018-09-03T03:50:31.188Z,0
2018-09-03T03:51:32.630Z,0
2018-09-03T03:52:34.013Z,0
2018-09-03T03:53:35.419Z,0
2018-09-03T03:54:36.899Z,0
2018-09-03T03:55:38.354Z,0
2018-09-03T03:56:39.814Z,0
2018-09-03T03:57:41.223Z,0
2018-09-03T03:58:42.700Z,0
2018-09-03T03:59:44.099Z,0
2018-09-03T04:00:45.541Z,0
2018-09-03T04:01:46.939Z,0
2018-09-03T04:02:48.409Z,0
2018-09-03T04:03:49.885Z,0
2018-09-03T04:04:51.284Z,0
2018-09-03T04:05:52.751Z,0
2018-09-03T04:06:54.164Z,0
2018-09-03T04:07:55.622Z,0
2018-09-03T04:08:57.097Z,0
2018-09-03T04:09:58.488Z,0
2018-09-03T04:10:59.908Z,0
2018-09-03T04:12:01.330Z,0
2018-09-03T04:13:02.788Z,0
2018-09-03T04:14:04.175Z,0
2018-09-03T04:15:05.646Z,0
2018-09-03T04:16:07.148Z,0
2018-09-03T04:17:08.562Z,0
2018-09-03T04:18:10.018Z,0
2018-09-03T04:19:11.437Z,0
2018-09-03T04:20:12.848Z,0
2018-09-03T04:21:14.270Z,0
2018-09-03T04:22:15.698Z,0
2018-09-03T04:23:17.160Z,0
2018-09-03T04:24:18.548Z,0
2018-09-03T04:25:19.993Z,0
2018-09-03T04:26:21.439Z,0
2018-09-03T04:27:22.941Z,0
2018-09-03T04:28:24.357Z,0
2018-09-03T04:29:25.852Z,4
2018-09-03T04:30:27.376Z,4
2018-09-03T04:31:28.787Z,0
2018-09-03T04:32:30.234Z,0
2018-09-03T04:33:31.692Z,4
2018-09-03T04:34:33.146Z,4
2018-09-03T04:35:34.600Z,4
2018-09-03T04:36:36.058Z,4
2018-09-03T04:37:37.456Z,4
2018-09-03T04:38:38.885Z,4
2018-09-03T04:39:40.302Z,8
2018-09-03T04:40:41.738Z,8
2018-09-03T04:41:43.139Z,8
2018-09-03T04:42:44.572Z,12
2018-09-03T04:43:45.978Z,12
2018-09-03T04:44:47.411Z,12
2018-09-03T04:45:48.885Z,16
2018-09-03T04:46:50.294Z,16
2018-09-03T04:47:51.744Z,16
2018-09-03T04:48:53.164Z,20
2018-09-03T04:49:54.559Z,20
2018-09-03T04:50:56.007Z,24
2018-09-03T04:51:57.462Z,24
2018-09-03T04:52:58.909Z,28
2018-09-03T04:54:00.363Z,28
2018-09-03T04:55:01.766Z,28
2018-09-03T04:56:03.206Z,32
2018-09-03T04:57:04.597Z,36
2018-09-03T04:58:05.996Z,40
2018-09-03T04:59:07.416Z,40
2018-09-03T05:00:08.808Z,44
2018-09-03T05:01:10.207Z,44
2018-09-03T05:02:11.603Z,48
2018-09-03T05:03:13.067Z,48
2018-09-03T05:04:14.470Z,52
2018-09-03T05:05:15.941Z,56
2018-09-03T05:06:17.390Z,60
2018-09-03T05:07:18.801Z,64
2018-09-03T05:08:20.285Z,72
2018-09-03T05:09:21.721Z,76
2018-09-03T05:10:23.145Z,80
2018-09-03T05:11:24.574Z,84
2018-09-03T05:12:26.055Z,88
2018-09-03T05:13:27.441Z,96
2018-09-03T05:14:28.950Z,100
2018-09-03T05:15:30.426Z,108
2018-09-03T05:16:31.838Z,116
2018-09-03T05:17:33.280Z,124
2018-09-03T05:18:34.723Z,124
2018-09-03T05:19:36.184Z,132
2018-09-03T05:20:37.607Z,132
2018-09-03T05:21:39.107Z,128
2018-09-03T05:22:40.502Z,132
2018-09-03T05:23:42.004Z,140
2018-09-03T05:24:43.455Z,156
2018-09-03T05:25:44.848Z,176
2018-09-03T05:26:46.277Z,192
2018-09-03T05:27:47.706Z,224
2018-09-03T05:28:49.139Z,280
2018-09-03T05:29:50.581Z,328
2018-09-03T05:30:52.033Z,356
2018-09-03T05:31:53.609Z,356
2018-09-03T05:32:55.090Z,360
2018-09-03T05:33:56.608Z,368
2018-09-03T05:34:57.979Z,400
2018-09-03T05:35:59.465Z,404
2018-09-03T05:37:00.912Z,396
2018-09-03T05:38:02.309Z,392
2018-09-03T05:39:03.711Z,380
2018-09-03T05:40:05.115Z,348
2018-09-03T05:41:06.509Z,336
2018-09-03T05:42:08.005Z,344
2018-09-03T05:43:09.505Z,360
2018-09-03T05:44:10.856Z,368
2018-09-03T05:45:12.355Z,380
2018-09-03T05:46:13.764Z,380
2018-09-03T05:47:15.211Z,384
2018-09-03T05:48:16.710Z,400
2018-09-03T05:49:18.112Z,416
2018-09-03T05:50:19.631Z,436
2018-09-03T05:51:20.974Z,456
2018-09-03T05:52:22.461Z,476
2018-09-03T05:53:23.929Z,520
2018-09-03T05:54:25.338Z,536
2018-09-03T05:55:26.750Z,508
2018-09-03T05:56:28.228Z,496
2018-09-03T05:57:29.923Z,568
2018-09-03T05:58:31.402Z,684
2018-09-03T05:59:32.794Z,788
2018-09-03T06:00:34.274Z,848
2018-09-03T06:01:35.707Z,896
2018-09-03T06:02:37.104Z,948
2018-09-03T06:03:38.573Z,992
2018-09-03T06:04:40.001Z,1008
2018-09-03T06:05:41.417Z,1000
2018-09-03T06:06:42.867Z,972
2018-09-03T06:07:45.132Z,944
2018-09-03T06:08:46.561Z,924
2018-09-03T06:09:47.984Z,928
2018-09-03T06:10:49.425Z,944
2018-09-03T06:11:50.838Z,952
2018-09-03T06:12:52.262Z,952
2018-09-03T06:13:53.808Z,948
2018-09-03T06:14:55.275Z,936
2018-09-03T06:15:56.666Z,920
2018-09-03T06:16:58.116Z,912
2018-09-03T06:17:59.561Z,888
2018-09-03T06:19:01.049Z,844
2018-09-03T06:20:02.487Z,808
2018-09-03T06:21:03.880Z,808
2018-09-03T06:22:05.373Z,836
2018-09-03T06:23:06.810Z,856
2018-09-03T06:24:08.211Z,864
2018-09-03T06:25:09.660Z,868
2018-09-03T06:26:11.124Z,876
2018-09-03T06:27:12.561Z,900
2018-09-03T06:28:14.026Z,936
2018-09-03T06:29:15.479Z,976
2018-09-03T06:30:16.926Z,1040
2018-09-03T06:31:18.371Z,1104
2018-09-03T06:32:19.816Z,1156
2018-09-03T06:33:21.282Z,1192
2018-09-03T06:34:22.739Z,1260
2018-09-03T06:35:24.118Z,1324
2018-09-03T06:36:25.601Z,1336
2018-09-03T06:37:27.056Z,1332
2018-09-03T06:38:28.549Z,1316
2018-09-03T06:39:30.075Z,1272
2018-09-03T06:40:31.649Z,1256
2018-09-03T06:41:33.354Z,1268
2018-09-03T06:42:34.775Z,1344
2018-09-03T06:43:36.175Z,1412
2018-09-03T06:44:37.608Z,1444
2018-09-03T06:45:39.045Z,1444
2018-09-03T06:46:40.475Z,1456
2018-09-03T06:47:42.018Z,1496
2018-09-03T06:48:43.505Z,1568
2018-09-03T06:49:44.911Z,1608
2018-09-03T06:50:46.373Z,1600
2018-09-03T06:51:47.830Z,1600
2018-09-03T06:52:49.329Z,1584
2018-09-03T06:53:50.679Z,1536
2018-09-03T06:54:52.119Z,1504
2018-09-03T06:55:53.632Z,1508
2018-09-03T06:56:55.110Z,1528
2018-09-03T06:57:56.553Z,1564
2018-09-03T06:58:57.988Z,1628
2018-09-03T06:59:59.450Z,1692
2018-09-03T07:01:00.863Z,1740
2018-09-03T07:02:02.277Z,1784
2018-09-03T07:03:03.721Z,1804
2018-09-03T07:04:05.251Z,1784
2018-09-03T07:05:06.669Z,1708
2018-09-03T07:06:08.092Z,1644
2018-09-03T07:07:09.548Z,1640
2018-09-03T07:08:10.973Z,1660
2018-09-03T07:09:12.466Z,1740
2018-09-03T07:10:13.904Z,1816
2018-09-03T07:11:15.340Z,1880
2018-09-03T07:12:16.828Z,1936
2018-09-03T07:13:18.285Z,1976
2018-09-03T07:14:19.805Z,1988
2018-09-03T07:15:21.281Z,1980
2018-09-03T07:16:22.681Z,1932
2018-09-03T07:17:24.092Z,1840
2018-09-03T07:18:25.508Z,1776
2018-09-03T07:19:26.917Z,1748
2018-09-03T07:20:28.416Z,1756
2018-09-03T07:21:29.943Z,1780
2018-09-03T07:22:31.477Z,1824
2018-09-03T07:23:32.870Z,1904
2018-09-03T07:24:34.308Z,1928
2018-09-03T07:25:35.808Z,1888
2018-09-03T07:26:37.201Z,1856
2018-09-03T07:27:38.675Z,1812
2018-09-03T07:28:40.122Z,1752
2018-09-03T07:29:41.568Z,1684
2018-09-03T07:30:42.997Z,1680
2018-09-03T07:31:44.584Z,1704
2018-09-03T07:32:46.022Z,1716
2018-09-03T07:33:47.445Z,1736
2018-09-03T07:34:48.874Z,1724
2018-09-03T07:35:50.279Z,1664
2018-09-03T07:36:51.723Z,1576
2018-09-03T07:37:53.156Z,1548
2018-09-03T07:38:54.591Z,1604
2018-09-03T07:39:56.028Z,1676
2018-09-03T07:40:57.453Z,1756
2018-09-03T07:41:58.861Z,1852
2018-09-03T07:43:00.338Z,2016
2018-09-03T07:44:01.755Z,2248
2018-09-03T07:45:03.224Z,2460
2018-09-03T07:46:04.663Z,2576
2018-09-03T07:47:06.086Z,2588
2018-09-03T07:48:07.518Z,2596
2018-09-03T07:49:08.926Z,2676
2018-09-03T07:50:10.363Z,2760
2018-09-03T07:51:11.834Z,2788
2018-09-03T07:52:13.193Z,2796
2018-09-03T07:53:14.632Z,2812
2018-09-03T07:54:16.087Z,2812
2018-09-03T07:55:17.584Z,2896
2018-09-03T07:56:18.997Z,3120
2018-09-03T07:57:20.457Z,3396
2018-09-03T07:58:21.895Z,3592
2018-09-03T07:59:23.372Z,3756
2018-09-03T08:00:24.755Z,3860
2018-09-03T08:01:26.168Z,3884
2018-09-03T08:02:27.612Z,3740
2018-09-03T08:03:29.011Z,3460
2018-09-03T08:04:30.438Z,3316
2018-09-03T08:05:32.062Z,3288
2018-09-03T08:06:33.479Z,3372
2018-09-03T08:07:34.960Z,3400
2018-09-03T08:08:36.417Z,3248
2018-09-03T08:09:37.864Z,3136
2018-09-03T08:10:39.345Z,3080
2018-09-03T08:11:40.766Z,2996
2018-09-03T08:12:42.176Z,2740
2018-09-03T08:13:43.600Z,2380
2018-09-03T08:14:45.078Z,2116
2018-09-03T08:15:46.499Z,2008
2018-09-03T08:16:47.910Z,2024
2018-09-03T08:17:49.303Z,2064
2018-09-03T08:18:50.720Z,2032
2018-09-03T08:19:52.214Z,2008
2018-09-03T08:20:53.552Z,1976
2018-09-03T08:21:54.946Z,1940
2018-09-03T08:22:56.345Z,1876
2018-09-03T08:23:57.765Z,1804
2018-09-03T08:24:59.187Z,1772
2018-09-03T08:26:00.614Z,1788
2018-09-03T08:27:02.066Z,1832
2018-09-03T08:28:03.536Z,1848
2018-09-03T08:29:04.992Z,1848
2018-09-03T08:30:06.404Z,1856
2018-09-03T08:31:07.791Z,1860
2018-09-03T08:32:09.243Z,1840
2018-09-03T08:33:10.643Z,1792
2018-09-03T08:34:12.075Z,1740
2018-09-03T08:35:13.519Z,1660
2018-09-03T08:36:14.951Z,1600
2018-09-03T08:37:16.324Z,1580
2018-09-03T08:38:17.767Z,1648
2018-09-03T08:39:19.199Z,1780
2018-09-03T08:40:20.609Z,1900
2018-09-03T08:41:22.046Z,2004
2018-09-03T08:42:23.508Z,2076
2018-09-03T08:43:24.927Z,2136
2018-09-03T08:44:26.330Z,2280
2018-09-03T08:45:27.759Z,2568
2018-09-03T08:46:29.159Z,2988
2018-09-03T08:47:30.565Z,3380
2018-09-03T08:48:31.962Z,3700
2018-09-03T08:49:33.546Z,3752
2018-09-03T08:50:35.046Z,3580
2018-09-03T08:51:36.499Z,3320
2018-09-03T08:52:37.909Z,3244
2018-09-03T08:53:39.340Z,3384
2018-09-03T08:54:40.819Z,3520
2018-09-03T08:55:42.222Z,3644
2018-09-03T08:56:43.683Z,3744
2018-09-03T08:57:45.068Z,3848
2018-09-03T08:58:46.473Z,4116
2018-09-03T08:59:47.926Z,4364
2018-09-03T09:00:49.358Z,4120
2018-09-03T09:01:50.806Z,3756
2018-09-03T09:02:52.259Z,3684
2018-09-03T09:03:53.699Z,3716
2018-09-03T09:04:55.107Z,3664
2018-09-03T09:05:56.753Z,3488
2018-09-03T09:06:58.153Z,3184
2018-09-03T09:07:59.804Z,2884
2018-09-03T09:09:01.222Z,2588
2018-09-03T09:10:02.794Z,2268
2018-09-03T09:11:04.236Z,2016
2018-09-03T09:12:05.675Z,1900
2018-09-03T09:13:07.114Z,1924
2018-09-03T09:14:08.568Z,1956
2018-09-03T09:15:10.242Z,1964
2018-09-03T09:16:11.889Z,2032
2018-09-03T09:17:13.417Z,2116
2018-09-03T09:18:14.926Z,2176
2018-09-03T09:19:16.498Z,2204
2018-09-03T09:20:17.993Z,2260
2018-09-03T09:21:19.439Z,2364
2018-09-03T09:22:20.966Z,2452
2018-09-03T09:23:22.386Z,2604
2018-09-03T09:24:23.897Z,2916
2018-09-03T09:25:25.232Z,3512
2018-09-03T09:26:26.657Z,4112
2018-09-03T09:27:28.068Z,4552
2018-09-03T09:28:29.504Z,4612
2018-09-03T09:29:30.917Z,4676
2018-09-03T09:30:32.422Z,4796
2018-09-03T09:31:33.961Z,4812
2018-09-03T09:32:35.536Z,4676
2018-09-03T09:33:36.777Z,4816
2018-09-03T09:34:38.178Z,4636
2018-09-03T09:35:39.701Z,4452
2018-09-03T09:36:41.090Z,4040
2018-09-03T09:37:42.455Z,3616
2018-09-03T09:38:43.870Z,3324
2018-09-03T09:39:45.427Z,3248
2018-09-03T09:40:46.851Z,3324
2018-09-03T09:41:48.315Z,3596
2018-09-03T09:42:49.721Z,3912
2018-09-03T09:43:51.135Z,4628
2018-09-03T09:44:52.606Z,5240
2018-09-03T09:45:54.046Z,5320
2018-09-03T09:46:55.459Z,4960
2018-09-03T09:47:57.148Z,4720
2018-09-03T09:48:58.545Z,4552
2018-09-03T09:49:59.968Z,4236
2018-09-03T09:51:01.381Z,3796
2018-09-03T09:52:02.851Z,3548
2018-09-03T09:53:04.242Z,3740
2018-09-03T09:54:05.636Z,4180
2018-09-03T09:55:07.153Z,4492
2018-09-03T09:56:08.627Z,4652
2018-09-03T09:57:10.086Z,4888
2018-09-03T09:58:11.484Z,5816
2018-09-03T09:59:12.877Z,5948
2018-09-03T10:00:14.340Z,5704
2018-09-03T10:01:15.794Z,5304
2018-09-03T10:02:17.190Z,5132
2018-09-03T10:03:18.613Z,6668
2018-09-03T10:04:20.162Z,6268
2018-09-03T10:05:21.523Z,6144
2018-09-03T10:06:22.918Z,6360
2018-09-03T10:07:24.378Z,6272
2018-09-03T10:08:25.813Z,6500
2018-09-03T10:09:27.240Z,6788
2018-09-03T10:10:28.636Z,9284
2018-09-03T10:11:30.116Z,10788
2018-09-03T10:12:31.601Z,9596
2018-09-03T10:13:32.928Z,10268
2018-09-03T10:14:34.542Z,11796
2018-09-03T10:15:35.997Z,8448
2018-09-03T10:16:37.467Z,7276
2018-09-03T10:17:38.867Z,7172
2018-09-03T10:18:40.346Z,8320
2018-09-03T10:19:41.854Z,9112
2018-09-03T10:20:43.242Z,8792
2018-09-03T10:21:44.703Z,8268
2018-09-03T10:22:46.121Z,6756
2018-09-03T10:23:47.554Z,7564
2018-09-03T10:24:48.956Z,9596
2018-09-03T10:25:50.398Z,10036
2018-09-03T10:26:51.799Z,9868
2018-09-03T10:27:53.199Z,17408
2018-09-03T10:28:54.637Z,17536
2018-09-03T10:29:56.033Z,14280
2018-09-03T10:30:57.435Z,13196
2018-09-03T10:31:58.902Z,17472
2018-09-03T10:33:00.369Z,16672
2018-09-03T10:34:01.821Z,16480
2018-09-03T10:35:03.238Z,15568
2018-09-03T10:36:04.721Z,14588
2018-09-03T10:37:06.146Z,16256
2018-09-03T10:38:07.576Z,12536
2018-09-03T10:39:09.003Z,9108
2018-09-03T10:40:10.460Z,8612
2018-09-03T10:41:11.926Z,8892
2018-09-03T10:42:13.327Z,8352
2018-09-03T10:43:14.756Z,7472
2018-09-03T10:44:16.153Z,6896
2018-09-03T10:45:17.562Z,7000
2018-09-03T10:46:19.022Z,7736
2018-09-03T10:47:20.521Z,8676
2018-09-03T10:48:21.949Z,9104
2018-09-03T10:49:23.352Z,8756
2018-09-03T10:50:24.822Z,10388
2018-09-03T10:51:26.227Z,10764
2018-09-03T10:52:27.711Z,9188
2018-09-03T10:53:29.194Z,7632
2018-09-03T10:54:32.804Z,6716
2018-09-03T10:55:34.738Z,6964
2018-09-03T10:56:36.126Z,6508
2018-09-03T10:57:37.575Z,5688
2018-09-03T10:58:39.146Z,4668
2018-09-03T10:59:40.815Z,4296
2018-09-03T11:00:42.337Z,4024
2018-09-03T11:01:43.782Z,4028
2018-09-03T11:02:45.184Z,4264
2018-09-03T11:03:46.582Z,4924
2018-09-03T11:04:47.983Z,5560
2018-09-03T11:05:49.676Z,7004
2018-09-03T11:06:51.124Z,7100
2018-09-03T11:07:52.524Z,7104
2018-09-03T11:08:54.025Z,7536
2018-09-03T11:09:55.811Z,9676
2018-09-03T11:10:57.204Z,13828
2018-09-03T11:11:59.151Z,16480
2018-09-03T11:13:00.688Z,17984
2018-09-03T11:14:02.056Z,12536
2018-09-03T11:15:03.519Z,16608
2018-09-03T11:16:04.918Z,6460
2018-09-03T11:17:06.323Z,4888
2018-09-03T11:18:07.853Z,4592
2018-09-03T11:19:09.245Z,4904
2018-09-03T11:20:10.646Z,5564
2018-09-03T11:21:12.138Z,8076
2018-09-03T11:22:13.516Z,7232
2018-09-03T11:23:14.934Z,7880
2018-09-03T11:24:16.333Z,7452
2018-09-03T11:25:17.781Z,7296
2018-09-03T11:26:19.656Z,5524
2018-09-03T11:27:21.388Z,4616
2018-09-03T11:28:22.843Z,4100
2018-09-03T11:29:24.682Z,3672
2018-09-03T11:30:26.205Z,3460
2018-09-03T11:31:27.698Z,3440
2018-09-03T11:32:29.218Z,3272
2018-09-03T11:33:30.625Z,3060
2018-09-03T11:34:32.326Z,2780
2018-09-03T11:35:33.782Z,2432
2018-09-03T11:36:35.516Z,2268
2018-09-03T11:37:36.983Z,2288
2018-09-03T11:38:38.682Z,2512
2018-09-03T11:39:40.561Z,2684
2018-09-03T11:40:42.027Z,2968
2018-09-03T11:41:43.979Z,3168
2018-09-03T11:42:45.745Z,3428
2018-09-03T11:43:47.430Z,3796
2018-09-03T11:44:48.972Z,3728
2018-09-03T11:45:50.379Z,3532
2018-09-03T11:46:51.789Z,3388
2018-09-03T11:47:53.259Z,3304
2018-09-03T11:48:55.074Z,3240
2018-09-03T11:49:56.387Z,3240
2018-09-03T11:50:57.874Z,3212
2018-09-03T11:51:59.321Z,3200
2018-09-03T11:53:00.751Z,3124
2018-09-03T11:54:02.222Z,2892
2018-09-03T11:55:03.943Z,2628
2018-09-03T11:56:05.645Z,2460
2018-09-03T11:57:07.180Z,2380
2018-09-03T11:58:09.017Z,2376
2018-09-03T11:59:10.588Z,2420
2018-09-03T12:00:12.231Z,2472
2018-09-03T12:01:13.668Z,2480
2018-09-03T12:02:15.267Z,2512
2018-09-03T12:03:16.713Z,2556
2018-09-03T12:04:18.115Z,2580
2018-09-03T12:05:19.988Z,2532
2018-09-03T12:06:21.444Z,2436
2018-09-03T12:07:22.878Z,2368
2018-09-03T12:08:24.310Z,2376
2018-09-03T12:09:25.785Z,2452
2018-09-03T12:10:27.764Z,2568
2018-09-03T12:11:29.184Z,2736
2018-09-03T12:12:30.698Z,2952
2018-09-03T12:13:32.101Z,3152
2018-09-03T12:14:33.502Z,3268
2018-09-03T12:15:34.905Z,3288
2018-09-03T12:16:36.318Z,3300
2018-09-03T12:17:37.877Z,3332
2018-09-03T12:18:39.315Z,3444
2018-09-03T12:19:40.953Z,3636
2018-09-03T12:20:42.581Z,3808
2018-09-03T12:21:44.080Z,3920
2018-09-03T12:22:45.571Z,3920
2018-09-03T12:23:46.966Z,3848
2018-09-03T12:24:48.360Z,3688
2018-09-03T12:25:49.843Z,3544
2018-09-03T12:26:51.294Z,3380
2018-09-03T12:27:52.693Z,3248
2018-09-03T12:28:54.102Z,3156
2018-09-03T12:29:55.548Z,3124
2018-09-03T12:30:56.971Z,3140
2018-09-03T12:31:58.417Z,3204
2018-09-03T12:32:59.901Z,3292
2018-09-03T12:34:01.364Z,3420
2018-09-03T12:35:02.859Z,3524
2018-09-03T12:36:04.276Z,3616
2018-09-03T12:37:05.743Z,3592
2018-09-03T12:38:07.116Z,3420
2018-09-03T12:39:08.527Z,3236
2018-09-03T12:40:10.069Z,3080
2018-09-03T12:41:11.472Z,2864
2018-09-03T12:42:13.013Z,2652
2018-09-03T12:43:14.504Z,2472
2018-09-03T12:44:15.906Z,2332
2018-09-03T12:45:17.364Z,2256
2018-09-03T12:46:18.785Z,2232
2018-09-03T12:47:20.220Z,2252
2018-09-03T12:48:21.704Z,2296
2018-09-03T12:49:23.245Z,2364
2018-09-03T12:50:24.662Z,2428
2018-09-03T12:51:26.140Z,2468
2018-09-03T12:52:27.588Z,2456
2018-09-03T12:53:29.054Z,2396
2018-09-03T12:54:30.460Z,2344
2018-09-03T12:55:31.865Z,2420
2018-09-03T12:56:33.341Z,2372
2018-09-03T12:57:34.922Z,2264
2018-09-03T12:58:36.412Z,2284
2018-09-03T12:59:37.774Z,2308
2018-09-03T13:00:39.214Z,2308
2018-09-03T13:01:40.652Z,2332
2018-09-03T13:02:42.088Z,2332
2018-09-03T13:03:43.641Z,2312
2018-09-03T13:04:45.178Z,2344
2018-09-03T13:05:46.617Z,2412
2018-09-03T13:06:48.073Z,2496
2018-09-03T13:07:49.505Z,2620
2018-09-03T13:08:50.954Z,2776
2018-09-03T13:09:52.489Z,2924
2018-09-03T13:10:53.952Z,2920
2018-09-03T13:11:55.348Z,2792
2018-09-03T13:12:56.875Z,2684
2018-09-03T13:13:58.327Z,2668
2018-09-03T13:14:59.866Z,2740
2018-09-03T13:16:01.324Z,2852
2018-09-03T13:17:02.776Z,3012
2018-09-03T13:18:04.174Z,3220
2018-09-03T13:19:05.580Z,3428
2018-09-03T13:20:06.985Z,3608
2018-09-03T13:21:08.435Z,3752
2018-09-03T13:22:09.876Z,3996
2018-09-03T13:23:11.361Z,4384
2018-09-03T13:24:12.870Z,4364
2018-09-03T13:25:14.262Z,3836
2018-09-03T13:26:15.752Z,3428
2018-09-03T13:27:17.232Z,3216
2018-09-03T13:28:18.634Z,3160
2018-09-03T13:29:20.067Z,3068
2018-09-03T13:30:21.607Z,3024
2018-09-03T13:31:23.021Z,3056
2018-09-03T13:32:24.464Z,3136
2018-09-03T13:33:25.871Z,3124
2018-09-03T13:34:27.411Z,2972
2018-09-03T13:35:28.809Z,2868
2018-09-03T13:36:30.217Z,2836
2018-09-03T13:37:31.699Z,2840
2018-09-03T13:38:35.129Z,2856
2018-09-03T13:39:36.375Z,2804
2018-09-03T13:40:37.778Z,2752
2018-09-03T13:41:39.530Z,2676
2018-09-03T13:42:40.851Z,2600
2018-09-03T13:43:42.284Z,2576
2018-09-03T13:44:43.682Z,2568
2018-09-03T13:45:45.183Z,2528
2018-09-03T13:46:47.039Z,2472
2018-09-03T13:47:48.440Z,2416
2018-09-03T13:48:49.963Z,2348
2018-09-03T13:49:51.422Z,2276
2018-09-03T13:50:53.064Z,2216
2018-09-03T13:51:54.484Z,2188
2018-09-03T13:52:55.928Z,2180
2018-09-03T13:53:57.384Z,2168
2018-09-03T13:54:58.985Z,2160
2018-09-03T13:56:00.470Z,2140
2018-09-03T13:57:03.073Z,2144
2018-09-03T13:58:04.546Z,2172
2018-09-03T13:59:05.951Z,2200
2018-09-03T14:00:07.338Z,2184
2018-09-03T14:01:08.754Z,2128
2018-09-03T14:02:10.534Z,2056
2018-09-03T14:03:11.966Z,2020
2018-09-03T14:04:13.359Z,2004
2018-09-03T14:05:15.032Z,1992
2018-09-03T14:06:16.472Z,1964
2018-09-03T14:07:17.869Z,1896
2018-09-03T14:08:19.495Z,1812
2018-09-03T14:09:20.964Z,1744